MSC Fortunate — 3FLG6 — position and weather

sailwx.info

Track history (hours):
 
Tides and Currents Weather Stations Pressure Air Temp Water Temp Dewpoint Dewpoint Depression Visibility Wind Speed Wind Dir Waves Ship Positions

MSC Fortunate

Last reported at 2014-Oct-31 08:34 UTC. Time now 2014-Oct-31 09:06 UTC.
Position N 50°34' E 001°05'.

Length 275 m; draft 11 m.

Type: Ship. MMSI: 356708000.

Date/timePositionNaut miles runAvg speedWind from/ knotsBaromVisibWave heightAir tempDewpointWater temp
2014-Oct-31 08:34N 50°34' E 001°05'1717.3
2014-Oct-31 07:34N 50°27' E 000°40'1717.1
2014-Oct-31 06:33N 50°22' E 000°14'1717.2
2014-Oct-31 05:34N 50°19' W 000°12'1917.3
2014-Oct-31 04:26N 50°13' W 000°41'1618.0
2014-Oct-31 03:33N 50°09' W 001°05'1919.1
2014-Oct-31 02:33N 50°04' W 001°34'2020.1
2014-Oct-31 01:33N 49°59' W 002°04'2020.2
2014-Oct-31 00:34N 49°52' W 002°34'2019.6
2014-Oct-30 23:34N 49°44' W 003°02'73817.6
2014-Oct-29 05:33N 38°27' W 009°48'2018.8
2014-Oct-29 04:29N 38°07' W 009°42'1718.5
2014-Oct-29 03:33N 37°51' W 009°37'1918.9
2014-Oct-29 02:33N 37°32' W 009°30'3818.7
2014-Oct-29 00:31N 36°55' W 009°20'2517.8
2014-Oct-28 23:07N 36°41' W 008°55'1119.0
2014-Oct-28 22:34N 36°37' W 008°42'2719.3
2014-Oct-28 21:10N 36°27' W 008°11'1219.5
2014-Oct-28 20:34N 36°23' W 007°57'2119.6
2014-Oct-28 19:30N 36°16' W 007°33'2219.4
2014-Oct-28 18:23N 36°09' W 007°08'1819.2
2014-Oct-28 17:26N 36°03' W 006°47'5819.7
2014-Oct-28 14:31N 35°58' W 005°36'1718.3
2014-Oct-28 13:34N 36°02' W 005°15'22318.5
2014-Oct-28 01:30N 37°19' W 000°55'1920.3
2014-Oct-28 00:33N 37°32' W 000°36'1919.5
2014-Oct-27 23:33N 37°48' W 000°22'9616.0
2014-Oct-27 17:34N 39°24' W 000°14'5 5.0
2014-Oct-27 16:32N 39°26' W 000°20'0 0.0
2014-Oct-27 15:23N 39°26' W 000°20'0 0.0
2014-Oct-27 14:29N 39°26' W 000°20'0 0.0
2014-Oct-27 13:23N 39°26' W 000°20'0 0.0
2014-Oct-27 12:20N 39°26' W 000°20'0 0.0
2014-Oct-27 11:32N 39°26' W 000°20'0 0.0
2014-Oct-27 10:32N 39°26' W 000°20'0 0.0
2014-Oct-27 09:32N 39°26' W 000°20'0 0.0
2014-Oct-27 08:32N 39°26' W 000°20'0 0.0
2014-Oct-27 07:32N 39°26' W 000°20'0 0.0
2014-Oct-27 06:32N 39°26' W 000°20'0 0.0
2014-Oct-27 04:33N 39°26' W 000°20'0 0.0
2014-Oct-27 03:30N 39°26' W 000°20'0 0.0
2014-Oct-27 01:27N 39°26' W 000°20'0 0.0
2014-Oct-27 00:27N 39°26' W 000°20'0 0.0
2014-Oct-26 23:33N 39°26' W 000°20'0 0.0
2014-Oct-26 22:33N 39°26' W 000°20'0 0.0
2014-Oct-26 21:33N 39°26' W 000°20'0 0.0
2014-Oct-26 20:33N 39°26' W 000°20'0 0.2
2014-Oct-26 19:33N 39°26' W 000°19'3 3.0
2014-Oct-26 18:33N 39°25' W 000°16'7 3.4
2014-Oct-26 16:33N 39°24' W 000°07'24 8.0
2014-Oct-26 13:33N 39°19' E 000°23'1 1.0
2014-Oct-26 12:27N 39°19' E 000°24'17 5.9
2014-Oct-26 09:31N 39°17' E 000°47'1717.2
2014-Oct-26 08:33N 39°15' E 001°08'2017.0
2014-Oct-26 07:21N 39°11' E 001°34'1417.3
2014-Oct-26 06:33N 39°09' E 001°51'1817.6
2014-Oct-26 05:33N 39°05' E 002°13'1817.7
2014-Oct-26 04:33N 39°02' E 002°36'1717.2
2014-Oct-26 03:33N 38°58' E 002°57'1717.1
2014-Oct-26 02:33N 38°54' E 003°19'1716.8
2014-Oct-26 01:33N 38°51' E 003°40'1716.5
2014-Oct-26 00:33N 38°47' E 004°01'2216.8
2014-Oct-25 23:15N 38°43' E 004°28'20017.1
2014-Oct-25 11:32N 38°01' E 008°38'1717.0
2014-Oct-25 10:33N 37°57' E 008°59'1716.9
2014-Oct-25 09:33N 37°54' E 009°20'1918.6
2014-Oct-25 08:33N 37°50' E 009°43'1918.7
2014-Oct-25 07:33N 37°45' E 010°06'  
Track history (hours):
 
Tides and Currents Weather Stations Pressure Air Temp Water Temp Dewpoint Dewpoint Depression Visibility Wind Speed Wind Dir Waves Ship Positions

MSC Fortunate

Last reported at 2014-Oct-31 08:34 UTC. Time now 2014-Oct-31 09:06 UTC.
Position N 50°34' E 001°05'.

Length 275 m; draft 11 m.

Type: Ship. MMSI: 356708000.

Date/timePositionNaut miles runAvg speedWind from/ knotsBaromVisibWave heightAir tempDewpointWater temp
2014-Oct-31 08:34N 50°34' E 001°05'1717.3
2014-Oct-31 07:34N 50°27' E 000°40'1717.1
2014-Oct-31 06:33N 50°22' E 000°14'1717.2
2014-Oct-31 05:34N 50°19' W 000°12'1917.3
2014-Oct-31 04:26N 50°13' W 000°41'1618.0
2014-Oct-31 03:33N 50°09' W 001°05'1919.1
2014-Oct-31 02:33N 50°04' W 001°34'2020.1
2014-Oct-31 01:33N 49°59' W 002°04'2020.2
2014-Oct-31 00:34N 49°52' W 002°34'2019.6
2014-Oct-30 23:34N 49°44' W 003°02'73817.6
2014-Oct-29 05:33N 38°27' W 009°48'2018.8
2014-Oct-29 04:29N 38°07' W 009°42'1718.5
2014-Oct-29 03:33N 37°51' W 009°37'1918.9
2014-Oct-29 02:33N 37°32' W 009°30'3818.7
2014-Oct-29 00:31N 36°55' W 009°20'2517.8
2014-Oct-28 23:07N 36°41' W 008°55'1119.0
2014-Oct-28 22:34N 36°37' W 008°42'2719.3
2014-Oct-28 21:10N 36°27' W 008°11'1219.5
2014-Oct-28 20:34N 36°23' W 007°57'2119.6
2014-Oct-28 19:30N 36°16' W 007°33'2219.4
2014-Oct-28 18:23N 36°09' W 007°08'1819.2
2014-Oct-28 17:26N 36°03' W 006°47'5819.7
2014-Oct-28 14:31N 35°58' W 005°36'1718.3
2014-Oct-28 13:34N 36°02' W 005°15'22318.5
2014-Oct-28 01:30N 37°19' W 000°55'1920.3
2014-Oct-28 00:33N 37°32' W 000°36'1919.5
2014-Oct-27 23:33N 37°48' W 000°22'9616.0
2014-Oct-27 17:34N 39°24' W 000°14'5 5.0
2014-Oct-27 16:32N 39°26' W 000°20'0 0.0
2014-Oct-27 15:23N 39°26' W 000°20'0 0.0
2014-Oct-27 14:29N 39°26' W 000°20'0 0.0
2014-Oct-27 13:23N 39°26' W 000°20'0 0.0
2014-Oct-27 12:20N 39°26' W 000°20'0 0.0
2014-Oct-27 11:32N 39°26' W 000°20'0 0.0
2014-Oct-27 10:32N 39°26' W 000°20'0 0.0
2014-Oct-27 09:32N 39°26' W 000°20'0 0.0
2014-Oct-27 08:32N 39°26' W 000°20'0 0.0
2014-Oct-27 07:32N 39°26' W 000°20'0 0.0
2014-Oct-27 06:32N 39°26' W 000°20'0 0.0
2014-Oct-27 04:33N 39°26' W 000°20'0 0.0
2014-Oct-27 03:30N 39°26' W 000°20'0 0.0
2014-Oct-27 01:27N 39°26' W 000°20'0 0.0
2014-Oct-27 00:27N 39°26' W 000°20'0 0.0
2014-Oct-26 23:33N 39°26' W 000°20'0 0.0
2014-Oct-26 22:33N 39°26' W 000°20'0 0.0
2014-Oct-26 21:33N 39°26' W 000°20'0 0.0
2014-Oct-26 20:33N 39°26' W 000°20'0 0.2
2014-Oct-26 19:33N 39°26' W 000°19'3 3.0
2014-Oct-26 18:33N 39°25' W 000°16'7 3.4
2014-Oct-26 16:33N 39°24' W 000°07'24 8.0
2014-Oct-26 13:33N 39°19' E 000°23'1 1.0
2014-Oct-26 12:27N 39°19' E 000°24'17 5.9
2014-Oct-26 09:31N 39°17' E 000°47'1717.2
2014-Oct-26 08:33N 39°15' E 001°08'2017.0
2014-Oct-26 07:21N 39°11' E 001°34'1417.3
2014-Oct-26 06:33N 39°09' E 001°51'1817.6
2014-Oct-26 05:33N 39°05' E 002°13'1817.7
2014-Oct-26 04:33N 39°02' E 002°36'1717.2
2014-Oct-26 03:33N 38°58' E 002°57'1717.1
2014-Oct-26 02:33N 38°54' E 003°19'1716.8
2014-Oct-26 01:33N 38°51' E 003°40'1716.5
2014-Oct-26 00:33N 38°47' E 004°01'2216.8
2014-Oct-25 23:15N 38°43' E 004°28'20017.1
2014-Oct-25 11:32N 38°01' E 008°38'1717.0
2014-Oct-25 10:33N 37°57' E 008°59'1716.9
2014-Oct-25 09:33N 37°54' E 009°20'1918.6
2014-Oct-25 08:33N 37°50' E 009°43'1918.7
2014-Oct-25 07:33N 37°45' E 010°06'  

Dump ship's entire track history